sensor_id;sensor_type;location;lat;lon;timestamp;temperature;humidity
74458;SHT31;62896;51.032;3.712;2023-09-08T00:02:01;21.7;86
74458;SHT31;62896;51.032;3.712;2023-09-08T00:05:21;21.6;86
74458;SHT31;62896;51.032;3.712;2023-09-08T00:08:41;21.6;86
74458;SHT31;62896;51.032;3.712;2023-09-08T00:12:01;21.6;86
74458;SHT31;62896;51.032;3.712;2023-09-08T00:15:21;21.4;87
74458;SHT31;62896;51.032;3.712;2023-09-08T00:18:41;21.4;87
74458;SHT31;62896;51.032;3.712;2023-09-08T00:22:01;21.4;87
74458;SHT31;62896;51.032;3.712;2023-09-08T00:25:21;21.4;87
74458;SHT31;62896;51.032;3.712;2023-09-08T00:28:41;21.4;87
74458;SHT31;62896;51.032;3.712;2023-09-08T00:32:01;21.4;87
74458;SHT31;62896;51.032;3.712;2023-09-08T00:35:21;21.3;87
74458;SHT31;62896;51.032;3.712;2023-09-08T00:38:41;21.3;87
74458;SHT31;62896;51.032;3.712;2023-09-08T00:42:01;21.3;87
74458;SHT31;62896;51.032;3.712;2023-09-08T00:45:21;21.3;87
74458;SHT31;62896;51.032;3.712;2023-09-08T00:48:41;21.3;87
74458;SHT31;62896;51.032;3.712;2023-09-08T00:52:01;21.3;87
74458;SHT31;62896;51.032;3.712;2023-09-08T00:55:21;21.2;87
74458;SHT31;62896;51.032;3.712;2023-09-08T00:58:41;21.2;87
74458;SHT31;62896;51.032;3.712;2023-09-08T01:02:01;21.2;87
74458;SHT31;62896;51.032;3.712;2023-09-08T01:05:21;21.1;87
74458;SHT31;62896;51.032;3.712;2023-09-08T01:08:41;21.1;87
74458;SHT31;62896;51.032;3.712;2023-09-08T01:12:02;21.1;87
74458;SHT31;62896;51.032;3.712;2023-09-08T01:15:21;21;88
74458;SHT31;62896;51.032;3.712;2023-09-08T01:18:41;21;88
74458;SHT31;62896;51.032;3.712;2023-09-08T01:22:09;21;88
74458;SHT31;62896;51.032;3.712;2023-09-08T01:25:21;20.9;88
74458;SHT31;62896;51.032;3.712;2023-09-08T01:28:41;20.9;88
74458;SHT31;62896;51.032;3.712;2023-09-08T01:32:01;20.9;88
74458;SHT31;62896;51.032;3.712;2023-09-08T01:35:21;20.9;88
74458;SHT31;62896;51.032;3.712;2023-09-08T01:38:41;20.9;88
74458;SHT31;62896;51.032;3.712;2023-09-08T01:42:01;20.9;88
74458;SHT31;62896;51.032;3.712;2023-09-08T01:45:21;20.9;88
74458;SHT31;62896;51.032;3.712;2023-09-08T01:48:41;20.9;88
74458;SHT31;62896;51.032;3.712;2023-09-08T01:52:01;20.9;88
74458;SHT31;62896;51.032;3.712;2023-09-08T01:55:21;20.8;89
74458;SHT31;62896;51.032;3.712;2023-09-08T01:58:41;20.8;89
74458;SHT31;62896;51.032;3.712;2023-09-08T02:02:01;20.8;89
74458;SHT31;62896;51.032;3.712;2023-09-08T02:05:21;20.7;89
74458;SHT31;62896;51.032;3.712;2023-09-08T02:08:41;20.7;89
74458;SHT31;62896;51.032;3.712;2023-09-08T02:12:02;20.7;89
74458;SHT31;62896;51.032;3.712;2023-09-08T02:15:21;20.7;89
74458;SHT31;62896;51.032;3.712;2023-09-08T02:18:41;20.7;89
74458;SHT31;62896;51.032;3.712;2023-09-08T02:22:01;20.7;89
74458;SHT31;62896;51.032;3.712;2023-09-08T02:25:22;20.7;89
74458;SHT31;62896;51.032;3.712;2023-09-08T02:28:41;20.7;89
74458;SHT31;62896;51.032;3.712;2023-09-08T02:32:01;20.7;89
74458;SHT31;62896;51.032;3.712;2023-09-08T02:35:21;20.6;89
74458;SHT31;62896;51.032;3.712;2023-09-08T02:38:41;20.6;89
74458;SHT31;62896;51.032;3.712;2023-09-08T02:42:01;20.6;89
74458;SHT31;62896;51.032;3.712;2023-09-08T02:45:21;20.6;89
74458;SHT31;62896;51.032;3.712;2023-09-08T02:48:41;20.6;89
74458;SHT31;62896;51.032;3.712;2023-09-08T02:52:01;20.6;89
74458;SHT31;62896;51.032;3.712;2023-09-08T02:55:21;20.6;88
74458;SHT31;62896;51.032;3.712;2023-09-08T02:58:41;20.6;88
74458;SHT31;62896;51.032;3.712;2023-09-08T03:02:01;20.6;88
74458;SHT31;62896;51.032;3.712;2023-09-08T03:05:21;20.6;88
74458;SHT31;62896;51.032;3.712;2023-09-08T03:08:41;20.6;88
74458;SHT31;62896;51.032;3.712;2023-09-08T03:12:01;20.6;88
74458;SHT31;62896;51.032;3.712;2023-09-08T03:15:21;20.5;88
74458;SHT31;62896;51.032;3.712;2023-09-08T03:18:41;20.5;88
74458;SHT31;62896;51.032;3.712;2023-09-08T03:22:01;20.5;88
74458;SHT31;62896;51.032;3.712;2023-09-08T03:25:21;20.4;88
74458;SHT31;62896;51.032;3.712;2023-09-08T03:28:41;20.4;88
74458;SHT31;62896;51.032;3.712;2023-09-08T03:32:01;20.4;88
74458;SHT31;62896;51.032;3.712;2023-09-08T03:35:21;20.2;89
74458;SHT31;62896;51.032;3.712;2023-09-08T03:38:41;20.2;89
74458;SHT31;62896;51.032;3.712;2023-09-08T03:42:01;20.2;89
74458;SHT31;62896;51.032;3.712;2023-09-08T03:45:21;20.1;89
74458;SHT31;62896;51.032;3.712;2023-09-08T03:48:41;20.1;89
74458;SHT31;62896;51.032;3.712;2023-09-08T03:52:01;20.1;89
74458;SHT31;62896;51.032;3.712;2023-09-08T03:55:21;19.9;90
74458;SHT31;62896;51.032;3.712;2023-09-08T03:58:41;19.9;90
74458;SHT31;62896;51.032;3.712;2023-09-08T04:02:01;19.9;90
74458;SHT31;62896;51.032;3.712;2023-09-08T04:05:21;19.8;91
74458;SHT31;62896;51.032;3.712;2023-09-08T04:08:41;19.8;91
74458;SHT31;62896;51.032;3.712;2023-09-08T04:12:01;19.8;91
74458;SHT31;62896;51.032;3.712;2023-09-08T04:15:21;19.7;91
74458;SHT31;62896;51.032;3.712;2023-09-08T04:18:41;19.7;91
74458;SHT31;62896;51.032;3.712;2023-09-08T04:22:01;19.7;91
74458;SHT31;62896;51.032;3.712;2023-09-08T04:25:21;19.7;90
74458;SHT31;62896;51.032;3.712;2023-09-08T04:28:41;19.7;90
74458;SHT31;62896;51.032;3.712;2023-09-08T04:32:01;19.7;90
74458;SHT31;62896;51.032;3.712;2023-09-08T04:35:21;19.5;91
74458;SHT31;62896;51.032;3.712;2023-09-08T04:38:41;19.5;91
74458;SHT31;62896;51.032;3.712;2023-09-08T04:42:01;19.5;91
74458;SHT31;62896;51.032;3.712;2023-09-08T04:45:21;19.5;91
74458;SHT31;62896;51.032;3.712;2023-09-08T04:48:41;19.5;91
74458;SHT31;62896;51.032;3.712;2023-09-08T04:52:01;19.5;91
74458;SHT31;62896;51.032;3.712;2023-09-08T04:55:21;19.4;91
74458;SHT31;62896;51.032;3.712;2023-09-08T04:58:41;19.4;91
74458;SHT31;62896;51.032;3.712;2023-09-08T05:02:01;19.4;91
74458;SHT31;62896;51.032;3.712;2023-09-08T05:05:21;19.3;91
74458;SHT31;62896;51.032;3.712;2023-09-08T05:08:41;19.3;91
74458;SHT31;62896;51.032;3.712;2023-09-08T05:12:01;19.3;91
74458;SHT31;62896;51.032;3.712;2023-09-08T05:15:21;19.3;91
74458;SHT31;62896;51.032;3.712;2023-09-08T05:18:41;19.3;91
74458;SHT31;62896;51.032;3.712;2023-09-08T05:22:01;19.3;91
74458;SHT31;62896;51.032;3.712;2023-09-08T05:25:21;19.4;91
74458;SHT31;62896;51.032;3.712;2023-09-08T05:28:41;19.4;91
74458;SHT31;62896;51.032;3.712;2023-09-08T05:32:01;19.4;91
74458;SHT31;62896;51.032;3.712;2023-09-08T05:35:21;19.4;91
74458;SHT31;62896;51.032;3.712;2023-09-08T05:38:41;19.4;91
74458;SHT31;62896;51.032;3.712;2023-09-08T05:42:01;19.4;91
74458;SHT31;62896;51.032;3.712;2023-09-08T05:45:21;19.6;90
74458;SHT31;62896;51.032;3.712;2023-09-08T05:48:41;19.6;90
74458;SHT31;62896;51.032;3.712;2023-09-08T05:52:01;19.6;90
74458;SHT31;62896;51.032;3.712;2023-09-08T05:55:21;19.7;90
74458;SHT31;62896;51.032;3.712;2023-09-08T05:58:41;19.7;90
74458;SHT31;62896;51.032;3.712;2023-09-08T06:02:01;19.7;90
74458;SHT31;62896;51.032;3.712;2023-09-08T06:05:21;20;89
74458;SHT31;62896;51.032;3.712;2023-09-08T06:08:41;20;89
74458;SHT31;62896;51.032;3.712;2023-09-08T06:12:01;20;89
74458;SHT31;62896;51.032;3.712;2023-09-08T06:15:21;20.3;88
74458;SHT31;62896;51.032;3.712;2023-09-08T06:18:41;20.3;88
74458;SHT31;62896;51.032;3.712;2023-09-08T06:22:01;20.3;88
74458;SHT31;62896;51.032;3.712;2023-09-08T06:25:21;20.6;87
74458;SHT31;62896;51.032;3.712;2023-09-08T06:28:41;20.6;87
74458;SHT31;62896;51.032;3.712;2023-09-08T06:32:01;20.6;87
74458;SHT31;62896;51.032;3.712;2023-09-08T06:35:21;21;86
74458;SHT31;62896;51.032;3.712;2023-09-08T06:38:41;21;86
74458;SHT31;62896;51.032;3.712;2023-09-08T06:42:01;21;86
74458;SHT31;62896;51.032;3.712;2023-09-08T06:45:21;21.4;85
74458;SHT31;62896;51.032;3.712;2023-09-08T06:48:41;21.4;85
74458;SHT31;62896;51.032;3.712;2023-09-08T06:52:02;21.4;85
74458;SHT31;62896;51.032;3.712;2023-09-08T06:55:21;22.2;82
74458;SHT31;62896;51.032;3.712;2023-09-08T06:58:41;22.2;82
74458;SHT31;62896;51.032;3.712;2023-09-08T07:02:01;22.2;82
74458;SHT31;62896;51.032;3.712;2023-09-08T07:05:21;23.3;78
74458;SHT31;62896;51.032;3.712;2023-09-08T07:08:41;23.3;78
74458;SHT31;62896;51.032;3.712;2023-09-08T07:12:01;23.3;78
74458;SHT31;62896;51.032;3.712;2023-09-08T07:15:21;23;79
74458;SHT31;62896;51.032;3.712;2023-09-08T07:18:41;23;79
74458;SHT31;62896;51.032;3.712;2023-09-08T07:22:01;23;79
74458;SHT31;62896;51.032;3.712;2023-09-08T07:25:21;23.3;78
74458;SHT31;62896;51.032;3.712;2023-09-08T07:28:41;23.3;78
74458;SHT31;62896;51.032;3.712;2023-09-08T07:32:01;23.3;78
74458;SHT31;62896;51.032;3.712;2023-09-08T07:35:21;23.4;78
74458;SHT31;62896;51.032;3.712;2023-09-08T07:38:41;23.4;78
74458;SHT31;62896;51.032;3.712;2023-09-08T07:42:02;23.4;78
74458;SHT31;62896;51.032;3.712;2023-09-08T07:45:21;23.6;78
74458;SHT31;62896;51.032;3.712;2023-09-08T07:48:41;23.6;78
74458;SHT31;62896;51.032;3.712;2023-09-08T07:52:02;23.6;78
74458;SHT31;62896;51.032;3.712;2023-09-08T07:55:22;23.9;77
74458;SHT31;62896;51.032;3.712;2023-09-08T07:58:41;23.9;77
74458;SHT31;62896;51.032;3.712;2023-09-08T08:02:01;23.9;77
74458;SHT31;62896;51.032;3.712;2023-09-08T08:05:22;24.1;77
74458;SHT31;62896;51.032;3.712;2023-09-08T08:08:41;24.1;77
74458;SHT31;62896;51.032;3.712;2023-09-08T08:12:01;24.1;77
74458;SHT31;62896;51.032;3.712;2023-09-08T08:15:22;24.3;76
74458;SHT31;62896;51.032;3.712;2023-09-08T08:18:41;24.3;76
74458;SHT31;62896;51.032;3.712;2023-09-08T08:22:02;24.3;76
74458;SHT31;62896;51.032;3.712;2023-09-08T08:25:22;24.6;76
74458;SHT31;62896;51.032;3.712;2023-09-08T08:28:41;24.6;76
74458;SHT31;62896;51.032;3.712;2023-09-08T08:32:02;24.6;76
74458;SHT31;62896;51.032;3.712;2023-09-08T08:35:22;24.9;75
74458;SHT31;62896;51.032;3.712;2023-09-08T08:38:41;24.9;75
74458;SHT31;62896;51.032;3.712;2023-09-08T08:42:06;24.9;75
74458;SHT31;62896;51.032;3.712;2023-09-08T08:45:22;25.2;74
74458;SHT31;62896;51.032;3.712;2023-09-08T08:48:41;25.2;74
74458;SHT31;62896;51.032;3.712;2023-09-08T08:52:02;25.2;74
74458;SHT31;62896;51.032;3.712;2023-09-08T08:55:22;25.4;74
74458;SHT31;62896;51.032;3.712;2023-09-08T08:58:41;25.4;74
74458;SHT31;62896;51.032;3.712;2023-09-08T09:02:02;25.4;74
74458;SHT31;62896;51.032;3.712;2023-09-08T09:05:22;25.7;74
74458;SHT31;62896;51.032;3.712;2023-09-08T09:08:42;25.7;74
74458;SHT31;62896;51.032;3.712;2023-09-08T09:12:02;25.7;74
74458;SHT31;62896;51.032;3.712;2023-09-08T09:15:27;26;73
74458;SHT31;62896;51.032;3.712;2023-09-08T09:18:58;26;73
74458;SHT31;62896;51.032;3.712;2023-09-08T09:22:02;26;73
74458;SHT31;62896;51.032;3.712;2023-09-08T09:25:22;26.4;73
74458;SHT31;62896;51.032;3.712;2023-09-08T09:28:46;26.4;73
74458;SHT31;62896;51.032;3.712;2023-09-08T09:32:02;26.4;73
74458;SHT31;62896;51.032;3.712;2023-09-08T09:35:22;26.6;72
74458;SHT31;62896;51.032;3.712;2023-09-08T09:38:42;26.6;72
74458;SHT31;62896;51.032;3.712;2023-09-08T09:42:02;26.6;72
74458;SHT31;62896;51.032;3.712;2023-09-08T09:45:24;26.8;72
74458;SHT31;62896;51.032;3.712;2023-09-08T09:48:42;26.8;72
74458;SHT31;62896;51.032;3.712;2023-09-08T09:52:02;26.8;72
74458;SHT31;62896;51.032;3.712;2023-09-08T09:55:22;27.1;71
74458;SHT31;62896;51.032;3.712;2023-09-08T09:58:42;27.1;71
74458;SHT31;62896;51.032;3.712;2023-09-08T10:02:02;27.1;71
74458;SHT31;62896;51.032;3.712;2023-09-08T10:05:23;27.4;70
74458;SHT31;62896;51.032;3.712;2023-09-08T10:08:42;27.4;70
74458;SHT31;62896;51.032;3.712;2023-09-08T10:12:03;27.4;70
74458;SHT31;62896;51.032;3.712;2023-09-08T10:15:22;27.8;69
74458;SHT31;62896;51.032;3.712;2023-09-08T10:18:42;27.8;69
74458;SHT31;62896;51.032;3.712;2023-09-08T10:22:02;27.8;69
74458;SHT31;62896;51.032;3.712;2023-09-08T10:25:24;28.1;69
74458;SHT31;62896;51.032;3.712;2023-09-08T10:28:42;28.1;69
74458;SHT31;62896;51.032;3.712;2023-09-08T10:32:02;28.1;69
74458;SHT31;62896;51.032;3.712;2023-09-08T10:35:22;28.1;69
74458;SHT31;62896;51.032;3.712;2023-09-08T10:38:42;28.1;69
74458;SHT31;62896;51.032;3.712;2023-09-08T10:42:34;28.1;69
74458;SHT31;62896;51.032;3.712;2023-09-08T10:45:22;28.3;67
74458;SHT31;62896;51.032;3.712;2023-09-08T10:48:42;28.3;67
74458;SHT31;62896;51.032;3.712;2023-09-08T10:52:05;28.3;67
74458;SHT31;62896;51.032;3.712;2023-09-08T10:55:22;28.5;66
74458;SHT31;62896;51.032;3.712;2023-09-08T10:58:42;28.5;66
74458;SHT31;62896;51.032;3.712;2023-09-08T11:02:02;28.5;66
74458;SHT31;62896;51.032;3.712;2023-09-08T11:05:22;29;65
74458;SHT31;62896;51.032;3.712;2023-09-08T11:08:42;29;65
74458;SHT31;62896;51.032;3.712;2023-09-08T11:12:02;29;65
74458;SHT31;62896;51.032;3.712;2023-09-08T11:15:22;29.5;64
74458;SHT31;62896;51.032;3.712;2023-09-08T11:18:42;29.5;64
74458;SHT31;62896;51.032;3.712;2023-09-08T11:22:02;29.5;64
74458;SHT31;62896;51.032;3.712;2023-09-08T11:25:22;29.8;63
74458;SHT31;62896;51.032;3.712;2023-09-08T11:28:42;29.8;63
74458;SHT31;62896;51.032;3.712;2023-09-08T11:32:02;29.8;63
74458;SHT31;62896;51.032;3.712;2023-09-08T11:35:23;29.8;63
74458;SHT31;62896;51.032;3.712;2023-09-08T11:38:42;29.8;63
74458;SHT31;62896;51.032;3.712;2023-09-08T11:42:02;29.8;63
74458;SHT31;62896;51.032;3.712;2023-09-08T11:45:22;30.1;61
74458;SHT31;62896;51.032;3.712;2023-09-08T11:48:42;30.1;61
74458;SHT31;62896;51.032;3.712;2023-09-08T11:52:02;30.1;61
74458;SHT31;62896;51.032;3.712;2023-09-08T11:55:22;30.3;59
74458;SHT31;62896;51.032;3.712;2023-09-08T11:58:42;30.3;59
74458;SHT31;62896;51.032;3.712;2023-09-08T12:02:02;30.3;59
74458;SHT31;62896;51.032;3.712;2023-09-08T12:05:22;30.9;56
74458;SHT31;62896;51.032;3.712;2023-09-08T12:08:42;30.9;56
74458;SHT31;62896;51.032;3.712;2023-09-08T12:12:02;30.9;56
74458;SHT31;62896;51.032;3.712;2023-09-08T12:15:29;31.6;54
74458;SHT31;62896;51.032;3.712;2023-09-08T12:18:42;31.6;54
74458;SHT31;62896;51.032;3.712;2023-09-08T12:22:03;31.6;54
74458;SHT31;62896;51.032;3.712;2023-09-08T12:25:22;32.2;52
74458;SHT31;62896;51.032;3.712;2023-09-08T12:28:42;32.2;52
74458;SHT31;62896;51.032;3.712;2023-09-08T12:32:02;32.2;52
74458;SHT31;62896;51.032;3.712;2023-09-08T12:35:22;32.6;51
74458;SHT31;62896;51.032;3.712;2023-09-08T12:38:46;32.6;51
74458;SHT31;62896;51.032;3.712;2023-09-08T12:42:02;32.6;51
74458;SHT31;62896;51.032;3.712;2023-09-08T12:45:22;32.7;51
74458;SHT31;62896;51.032;3.712;2023-09-08T12:48:42;32.7;51
74458;SHT31;62896;51.032;3.712;2023-09-08T12:52:02;32.7;51
74458;SHT31;62896;51.032;3.712;2023-09-08T12:55:22;33.1;48
74458;SHT31;62896;51.032;3.712;2023-09-08T12:58:42;33.1;48
74458;SHT31;62896;51.032;3.712;2023-09-08T13:02:02;33.1;48
74458;SHT31;62896;51.032;3.712;2023-09-08T13:05:22;33.4;45
74458;SHT31;62896;51.032;3.712;2023-09-08T13:08:42;33.4;45
74458;SHT31;62896;51.032;3.712;2023-09-08T13:12:02;33.4;45
74458;SHT31;62896;51.032;3.712;2023-09-08T13:15:22;33.2;44
74458;SHT31;62896;51.032;3.712;2023-09-08T13:18:42;33.2;44
74458;SHT31;62896;51.032;3.712;2023-09-08T13:22:02;33.2;44
74458;SHT31;62896;51.032;3.712;2023-09-08T13:25:22;33.6;43
74458;SHT31;62896;51.032;3.712;2023-09-08T13:28:42;33.6;43
74458;SHT31;62896;51.032;3.712;2023-09-08T13:32:03;33.6;43
74458;SHT31;62896;51.032;3.712;2023-09-08T13:35:22;34.1;42
74458;SHT31;62896;51.032;3.712;2023-09-08T13:38:42;34.1;42
74458;SHT31;62896;51.032;3.712;2023-09-08T13:42:02;34.1;42
74458;SHT31;62896;51.032;3.712;2023-09-08T13:45:22;34.1;42
74458;SHT31;62896;51.032;3.712;2023-09-08T13:48:42;34.1;42
74458;SHT31;62896;51.032;3.712;2023-09-08T13:52:02;34.1;42
74458;SHT31;62896;51.032;3.712;2023-09-08T13:55:22;34.3;43
74458;SHT31;62896;51.032;3.712;2023-09-08T13:58:42;34.3;43
74458;SHT31;62896;51.032;3.712;2023-09-08T14:02:02;34.3;43
74458;SHT31;62896;51.032;3.712;2023-09-08T14:05:22;34.6;41
74458;SHT31;62896;51.032;3.712;2023-09-08T14:08:42;34.6;41
74458;SHT31;62896;51.032;3.712;2023-09-08T14:12:02;34.6;41
74458;SHT31;62896;51.032;3.712;2023-09-08T14:15:22;34.5;42
74458;SHT31;62896;51.032;3.712;2023-09-08T14:18:42;34.5;42
74458;SHT31;62896;51.032;3.712;2023-09-08T14:22:02;34.5;42
74458;SHT31;62896;51.032;3.712;2023-09-08T14:25:22;34.8;43
74458;SHT31;62896;51.032;3.712;2023-09-08T14:28:42;34.8;43
74458;SHT31;62896;51.032;3.712;2023-09-08T14:32:02;34.8;43
74458;SHT31;62896;51.032;3.712;2023-09-08T14:35:22;34.6;42
74458;SHT31;62896;51.032;3.712;2023-09-08T14:38:42;34.6;42
74458;SHT31;62896;51.032;3.712;2023-09-08T14:42:02;34.6;42
74458;SHT31;62896;51.032;3.712;2023-09-08T14:45:22;34.8;41
74458;SHT31;62896;51.032;3.712;2023-09-08T14:48:42;34.8;41
74458;SHT31;62896;51.032;3.712;2023-09-08T14:52:02;34.8;41
74458;SHT31;62896;51.032;3.712;2023-09-08T14:55:22;34.7;42
74458;SHT31;62896;51.032;3.712;2023-09-08T14:58:42;34.7;42
74458;SHT31;62896;51.032;3.712;2023-09-08T15:02:02;34.7;42
74458;SHT31;62896;51.032;3.712;2023-09-08T15:05:22;35;41
74458;SHT31;62896;51.032;3.712;2023-09-08T15:08:42;35;41
74458;SHT31;62896;51.032;3.712;2023-09-08T15:12:02;35;41
74458;SHT31;62896;51.032;3.712;2023-09-08T15:15:22;35.8;38
74458;SHT31;62896;51.032;3.712;2023-09-08T15:18:42;35.8;38
74458;SHT31;62896;51.032;3.712;2023-09-08T15:22:02;35.8;38
74458;SHT31;62896;51.032;3.712;2023-09-08T15:25:22;36.2;37
74458;SHT31;62896;51.032;3.712;2023-09-08T15:28:42;36.2;37
74458;SHT31;62896;51.032;3.712;2023-09-08T15:32:02;36.2;37
74458;SHT31;62896;51.032;3.712;2023-09-08T15:35:22;36.1;36
74458;SHT31;62896;51.032;3.712;2023-09-08T15:38:42;36.1;36
74458;SHT31;62896;51.032;3.712;2023-09-08T15:42:02;36.1;36
74458;SHT31;62896;51.032;3.712;2023-09-08T15:45:22;35.9;36
74458;SHT31;62896;51.032;3.712;2023-09-08T15:48:42;35.9;36
74458;SHT31;62896;51.032;3.712;2023-09-08T15:52:02;35.9;36
74458;SHT31;62896;51.032;3.712;2023-09-08T15:55:22;33.1;41
74458;SHT31;62896;51.032;3.712;2023-09-08T15:58:42;33.1;41
74458;SHT31;62896;51.032;3.712;2023-09-08T16:02:02;33.1;41
74458;SHT31;62896;51.032;3.712;2023-09-08T16:05:22;31.8;49
74458;SHT31;62896;51.032;3.712;2023-09-08T16:08:42;31.8;49
74458;SHT31;62896;51.032;3.712;2023-09-08T16:12:02;31.8;49
74458;SHT31;62896;51.032;3.712;2023-09-08T16:15:22;30.8;55
74458;SHT31;62896;51.032;3.712;2023-09-08T16:18:42;30.8;55
74458;SHT31;62896;51.032;3.712;2023-09-08T16:22:02;30.8;55
74458;SHT31;62896;51.032;3.712;2023-09-08T16:25:22;30.2;57
74458;SHT31;62896;51.032;3.712;2023-09-08T16:28:42;30.2;57
74458;SHT31;62896;51.032;3.712;2023-09-08T16:32:02;30.2;57
74458;SHT31;62896;51.032;3.712;2023-09-08T16:35:22;29.7;57
74458;SHT31;62896;51.032;3.712;2023-09-08T16:38:42;29.7;57
74458;SHT31;62896;51.032;3.712;2023-09-08T16:42:02;29.7;57
74458;SHT31;62896;51.032;3.712;2023-09-08T16:45:22;29.2;57
74458;SHT31;62896;51.032;3.712;2023-09-08T16:48:42;29.2;57
74458;SHT31;62896;51.032;3.712;2023-09-08T16:52:02;29.2;57
74458;SHT31;62896;51.032;3.712;2023-09-08T16:55:22;29;57
74458;SHT31;62896;51.032;3.712;2023-09-08T16:58:42;29;57
74458;SHT31;62896;51.032;3.712;2023-09-08T17:02:02;29;57
74458;SHT31;62896;51.032;3.712;2023-09-08T17:05:22;28.8;58
74458;SHT31;62896;51.032;3.712;2023-09-08T17:08:42;28.8;58
74458;SHT31;62896;51.032;3.712;2023-09-08T17:12:02;28.8;58
74458;SHT31;62896;51.032;3.712;2023-09-08T17:15:22;28.5;58
74458;SHT31;62896;51.032;3.712;2023-09-08T17:18:42;28.5;58
74458;SHT31;62896;51.032;3.712;2023-09-08T17:22:02;28.5;58
74458;SHT31;62896;51.032;3.712;2023-09-08T17:25:22;28.2;57
74458;SHT31;62896;51.032;3.712;2023-09-08T17:28:42;28.2;57
74458;SHT31;62896;51.032;3.712;2023-09-08T17:32:02;28.2;57
74458;SHT31;62896;51.032;3.712;2023-09-08T17:35:22;28;57
74458;SHT31;62896;51.032;3.712;2023-09-08T17:38:42;28;57
74458;SHT31;62896;51.032;3.712;2023-09-08T17:42:02;28;57
74458;SHT31;62896;51.032;3.712;2023-09-08T17:45:22;27.8;58
74458;SHT31;62896;51.032;3.712;2023-09-08T17:48:42;27.8;58
74458;SHT31;62896;51.032;3.712;2023-09-08T17:52:02;27.8;58
74458;SHT31;62896;51.032;3.712;2023-09-08T17:55:22;27.5;60
74458;SHT31;62896;51.032;3.712;2023-09-08T17:58:42;27.5;60
74458;SHT31;62896;51.032;3.712;2023-09-08T18:02:02;27.5;60
74458;SHT31;62896;51.032;3.712;2023-09-08T18:05:22;27.2;62
74458;SHT31;62896;51.032;3.712;2023-09-08T18:08:42;27.2;62
74458;SHT31;62896;51.032;3.712;2023-09-08T18:12:02;27.2;62
74458;SHT31;62896;51.032;3.712;2023-09-08T18:15:22;27;63
74458;SHT31;62896;51.032;3.712;2023-09-08T18:18:42;27;63
74458;SHT31;62896;51.032;3.712;2023-09-08T18:22:02;27;63
74458;SHT31;62896;51.032;3.712;2023-09-08T18:25:22;26.8;63
74458;SHT31;62896;51.032;3.712;2023-09-08T18:28:42;26.8;63
74458;SHT31;62896;51.032;3.712;2023-09-08T18:32:02;26.8;63
74458;SHT31;62896;51.032;3.712;2023-09-08T18:35:22;26.5;63
74458;SHT31;62896;51.032;3.712;2023-09-08T18:38:42;26.5;63
74458;SHT31;62896;51.032;3.712;2023-09-08T18:42:02;26.5;63
74458;SHT31;62896;51.032;3.712;2023-09-08T18:45:22;26.3;64
74458;SHT31;62896;51.032;3.712;2023-09-08T18:48:42;26.3;64
74458;SHT31;62896;51.032;3.712;2023-09-08T18:52:02;26.3;64
74458;SHT31;62896;51.032;3.712;2023-09-08T18:55:22;26.1;65
74458;SHT31;62896;51.032;3.712;2023-09-08T18:58:42;26.1;65
74458;SHT31;62896;51.032;3.712;2023-09-08T19:02:02;26.1;65
74458;SHT31;62896;51.032;3.712;2023-09-08T19:05:22;25.8;67
74458;SHT31;62896;51.032;3.712;2023-09-08T19:08:42;25.8;67
74458;SHT31;62896;51.032;3.712;2023-09-08T19:12:02;25.8;67
74458;SHT31;62896;51.032;3.712;2023-09-08T19:15:22;25.5;69
74458;SHT31;62896;51.032;3.712;2023-09-08T19:18:42;25.5;69
74458;SHT31;62896;51.032;3.712;2023-09-08T19:22:02;25.5;69
74458;SHT31;62896;51.032;3.712;2023-09-08T19:25:22;25.1;70
74458;SHT31;62896;51.032;3.712;2023-09-08T19:28:42;25.1;70
74458;SHT31;62896;51.032;3.712;2023-09-08T19:32:02;25.1;70
74458;SHT31;62896;51.032;3.712;2023-09-08T19:35:22;24.8;69
74458;SHT31;62896;51.032;3.712;2023-09-08T19:38:42;24.8;69
74458;SHT31;62896;51.032;3.712;2023-09-08T19:42:02;24.8;69
74458;SHT31;62896;51.032;3.712;2023-09-08T19:45:22;24.6;68
74458;SHT31;62896;51.032;3.712;2023-09-08T19:48:42;24.6;68
74458;SHT31;62896;51.032;3.712;2023-09-08T19:52:02;24.6;68
74458;SHT31;62896;51.032;3.712;2023-09-08T19:55:22;24.5;68
74458;SHT31;62896;51.032;3.712;2023-09-08T19:58:42;24.5;68
74458;SHT31;62896;51.032;3.712;2023-09-08T20:02:02;24.5;68
74458;SHT31;62896;51.032;3.712;2023-09-08T20:05:22;24.4;67
74458;SHT31;62896;51.032;3.712;2023-09-08T20:08:42;24.4;67
74458;SHT31;62896;51.032;3.712;2023-09-08T20:12:02;24.4;67
74458;SHT31;62896;51.032;3.712;2023-09-08T20:15:22;24.3;68
74458;SHT31;62896;51.032;3.712;2023-09-08T20:18:42;24.3;68
74458;SHT31;62896;51.032;3.712;2023-09-08T20:22:02;24.3;68
74458;SHT31;62896;51.032;3.712;2023-09-08T20:25:22;24.2;68
74458;SHT31;62896;51.032;3.712;2023-09-08T20:28:44;24.2;68
74458;SHT31;62896;51.032;3.712;2023-09-08T20:32:02;24.2;68
74458;SHT31;62896;51.032;3.712;2023-09-08T20:35:22;24;68
74458;SHT31;62896;51.032;3.712;2023-09-08T20:38:42;24;68
74458;SHT31;62896;51.032;3.712;2023-09-08T20:42:02;24;68
74458;SHT31;62896;51.032;3.712;2023-09-08T20:45:22;23.8;69
74458;SHT31;62896;51.032;3.712;2023-09-08T20:48:42;23.8;69
74458;SHT31;62896;51.032;3.712;2023-09-08T20:52:02;23.8;69
74458;SHT31;62896;51.032;3.712;2023-09-08T20:55:22;23.4;72
74458;SHT31;62896;51.032;3.712;2023-09-08T20:58:42;23.4;72
74458;SHT31;62896;51.032;3.712;2023-09-08T21:02:02;23.4;72
74458;SHT31;62896;51.032;3.712;2023-09-08T21:05:22;23;73
74458;SHT31;62896;51.032;3.712;2023-09-08T21:08:42;23;73
74458;SHT31;62896;51.032;3.712;2023-09-08T21:12:02;23;73
74458;SHT31;62896;51.032;3.712;2023-09-08T21:15:22;22.8;75
74458;SHT31;62896;51.032;3.712;2023-09-08T21:18:42;22.8;75
74458;SHT31;62896;51.032;3.712;2023-09-08T21:22:02;22.8;75
74458;SHT31;62896;51.032;3.712;2023-09-08T21:25:22;22.5;76
74458;SHT31;62896;51.032;3.712;2023-09-08T21:28:42;22.5;76
74458;SHT31;62896;51.032;3.712;2023-09-08T21:32:02;22.5;76
74458;SHT31;62896;51.032;3.712;2023-09-08T21:35:22;22.4;77
74458;SHT31;62896;51.032;3.712;2023-09-08T21:38:42;22.4;77
74458;SHT31;62896;51.032;3.712;2023-09-08T21:42:02;22.4;77
74458;SHT31;62896;51.032;3.712;2023-09-08T21:45:22;22.1;79
74458;SHT31;62896;51.032;3.712;2023-09-08T21:48:42;22.1;79
74458;SHT31;62896;51.032;3.712;2023-09-08T21:52:02;22.1;79
74458;SHT31;62896;51.032;3.712;2023-09-08T21:55:22;22;79
74458;SHT31;62896;51.032;3.712;2023-09-08T21:58:42;22;79
74458;SHT31;62896;51.032;3.712;2023-09-08T22:02:02;22;79
74458;SHT31;62896;51.032;3.712;2023-09-08T22:05:22;21.8;80
74458;SHT31;62896;51.032;3.712;2023-09-08T22:08:44;21.8;80
74458;SHT31;62896;51.032;3.712;2023-09-08T22:12:02;21.8;80
74458;SHT31;62896;51.032;3.712;2023-09-08T22:15:22;21.6;81
74458;SHT31;62896;51.032;3.712;2023-09-08T22:18:43;21.6;81
74458;SHT31;62896;51.032;3.712;2023-09-08T22:22:02;21.6;81
74458;SHT31;62896;51.032;3.712;2023-09-08T22:25:22;21.5;82
74458;SHT31;62896;51.032;3.712;2023-09-08T22:28:42;21.5;82
74458;SHT31;62896;51.032;3.712;2023-09-08T22:32:02;21.5;82